Airfield :
LOGIN :

Register | Disclaimer

   EN    FR    IT 

 










Legend :    VFR   Marginal VFR   IFR   Intensive IFR   Very Intensive IFR
Visi :
Ceiling :
>= 8 km
>= 3000ft
5 to 8 km
1000 to 3000 ft
1500m to 5 km
500 to 1000 ft
800 to 1500m
200 to 500 ft
< 800m
< 200 ft
Symbols :   Thunderstorms  Fog  Heavy snow  Heavy precipitations  Wind > 20 kt
SIGMETs :     Misc.  Thunderstorms  Icing  Turbulence  Mountain Waves  Volcanic Ashes







- Airport Elevation : 74 ft
- IATA code : LRH
- Download approach charts


LFBH - La Rochelle Ile de Ré

CURRENT METAR :
  • 210430Z AUTO 28019KT 7000 -RA OVC004 12/11 Q1019 TEMPO 3500 RA BECMG 28015G30KT

EXPIRED METARs :
  • 210400Z AUTO 28018KT 9000 OVC005 12/11 Q1019 TEMPO 3500 RA BECMG 28015G30KT
  • 210330Z AUTO 28019KT 6000 OVC005 12/11 Q1019 TEMPO 3500 RA BECMG 28015G30KT
  • 210300Z AUTO 28019KT 7000 OVC005 12/11 Q1019 TEMPO 3500 RA BECMG 28015G30KT
  • 210230Z AUTO 28018KT 8000 -DZ OVC005 12/11 Q1019 TEMPO 3500 RA BECMG 28015G30KT
  • 210200Z AUTO 28017KT 7000 -DZ OVC004 12/11 Q1018 TEMPO 3500 RA BECMG 28015G30KT

TAF TAF LFBH
Valid from the 21 at 00:00 until the 22 at 00:00 UTC


202300Z 2100/2124 28015G30KT 9999 OVC005
TEMPO 2100/2113 6000 -RADZ
PROB40
TEMPO 2100/2113 3500 RA OVC003
BECMG 2113/2115 BKN010 BKN030
TEMPO 2113/2124 4000 RADZ BKN005
ATIS : +33 5 46 00 13 92
No reported NOTAMs for that airfield.
1 SIGMET reported for the Bordeaux FIR (LFBB) :
 
Severe mountain waves
LFBB SIGMET 1 VALID 210300/210700 LFPW
LFBB BORDEAUX FIR/UIR SEV MTW FCST WI N4245 E00230 - N4215 E00230 - N4245 E00000 - N4300 E00000 - N4245 E00230 SFC/FL350 STNR NC=



MET'MAP, your aeronautical weather chart ! - Copyright ORBIFLY December 2007 - Disclaimer

ORBIFLY MET'MAP TEAM :

Programming & Development : Alexandra Zaïnal
Concept & Development : Baudouin d'Aumeries
Co-Development & Prog : Marc-Olivier Méhu
Technical & hardware support : Manuel Goepfert

Contact : metmap@orbifly.com




SOURCES & CREDITS :

   NOAA